Portada
METAR-TAF:

METAR-TAF

Aeroports :

Bàssora, Iraq

latitud: 30-32-56N, longitud: 47-39-45E, altitud: 1 m

Observació

L'informe es va fer fa 2 hores i 37 minuts, a les 00:00 UTC
Vent 12 kt del Oest/Sud-Oest
Temperatura 24°C
Humitat 36%
Pressió 1003 hPa
Visibilitat 10 km o més
sense núvols per sota de 1500 mi sense presència de cumulonimbus.

METAR: ORMM 220000Z 25012KT CAVOK 24/08 Q1003 NOSIG

Hora: 05:37 (02:37 UTC)

Pronòstic

L'informe es va fer fa 4 hores i 37 minuts, a les 22:00 UTC
Pronòstic vàlid del 22 a les 00 UTC al 22 a les 24 UTC
Vent 8 kt del Oest
Visibilitat 10 km o més
sense núvols per sota de 1500 mi sense presència de cumulonimbus.
Temporalment
l' 22 a les 08 UTC al 22 a les 16 UTC
Vent 15 kt del Oest/Nord-Oest amb ràfegues de 25 kt
Visibilitat: 6000 m

TAF: ORMM 212200Z 2200/2224 28008KT CAVOK TEMPO 2208/2216 30015G25KT 6000 NSC

Observacions i pronòstics meteorològics de més de 4000 aeroports (METAR i TAF).

Les estacions disponibles són els punts grocs i vermells al mapa.

Posi el ratolí al punt desitjat per veure el nom de l'estació.

Feu clic per veure les observacions i els pronòstics meteorològics.

Per canviar el mapa: feu clic els botons verds amb una creu de color negre per apropar; al botó verd amb un guió per allunyar la imatge; o en les fletxes verdes per a mapes adjacents.


METAR-TAF: